Aérodrome :
LOGIN :

S'inscrire | Disclaimer

   EN    FR    IT 

 










Légende :    VFR   VFR Marginal   IFR   IFR Intensif   IFR Très Intensif
Visi : 
Plafond : 
>= 8 km
>= 3000ft
5 à 8 km
1000 à 3000 ft
1500m à 5 km
500 à 1000 ft
800 à 1500m
200 à 500 ft
< 800m
< 200 ft
Symboles :   Orages  Brouillard  Fortes neiges  Fortes précipitations  Vent > 20 kt
SIGMETs :   Divers  Orages  Givrage  Turbulence  Onde Orograph.  Cendres Volcan.






- Altitude de l'aérodrome : 46 ft
- Code IATA : GPA


LGRX - Araxos

DERNIER METAR :
  • 240620Z 31004KT 9999 SCT025 18/12 Q1009

METARs EXPIRÉS :
  • 240550Z 32004KT 9999 SCT025 17/12 Q1009 RMK FEW180 BLU
  • 240520Z VRB03KT 9999 SCT025 17/12 Q1009
  • 240450Z VRB03KT 9999 FEW020 16/11 Q1009
  • 240420Z 28005KT 9999 FEW020 16/12 Q1009
  • 240350Z 00000KT 9999 FEW020 15/12 Q1009 RMK FEW180 BLU
  • 240320Z 29004KT 9999 FEW020 16/11 Q1008
  • 240250Z VRB03KT 9999 FEW025 15/12 Q1008 RMK FEW080 BLU
  • 240150Z 28004KT 9999 FEW025 SCT080 16/12 Q1008

TAF TAF LGRX
Valide du 24 à 06h jusqu'au 24 à 15h UTC


240500Z 2406/2415 28010KT 9999 FEW025



MET'MAP, la Météo Aéronautique d'un coup d'oeil ! - Copyright ORBIFLY Décembre 2007 - Disclaimer

ORBIFLY MET'MAP TEAM :

Programmation & Développement : Alexandra Zaïnal
Sur une idée originale de : Baudouin d'Aumeries
Soutien technique & logistique : Manuel Goepfert
Assistance : Marc-Olivier Méhu




SOURCES & CREDITS :

   NOAA